Time;durP1;ratioP1;P1;durP2;ratioP2;P2;SDS_P1;SDS_P2;PMS_P1;PMS_P2;Temp;Humidity;BMP_temperature;BMP_pressure;BME280_temperature;BME280_humidity;BME280_pressure;Samples;Min_cycle;Max_cycle;Signal;HPM_P1;HPM_P2
2021/08/16 00:00:18;;;;;;;9.40;1.15;;;;;;;;;;5034101;28;20018;-86
2021/08/16 00:02:45;;;;;;;11.70;1.77;;;;;;;;;;5031949;28;20018;-87
2021/08/16 00:05:10;;;;;;;10.85;1.77;;;;;;;;;;5023835;28;20030;-87
2021/08/16 00:07:36;;;;;;;5.57;1.70;;;;;;;;;;5034026;28;20138;-86
2021/08/16 00:10:01;;;;;;;7.07;1.80;;;;;;;;;;5019976;28;20021;-87
2021/08/16 00:12:26;;;;;;;8.48;1.98;;;;;;;;;;5033396;28;20420;-87
2021/08/16 00:14:51;;;;;;;5.25;1.50;;;;;;;;;;5033874;28;20028;-87
2021/08/16 00:17:16;;;;;;;8.50;1.60;;;;;;;;;;5033412;28;20021;-86
2021/08/16 00:19:42;;;;;;;9.85;1.73;;;;;;;;;;5013877;28;20385;-87
2021/08/16 00:22:07;;;;;;;6.93;1.38;;;;;;;;;;5026197;28;20362;-87
2021/08/16 00:24:32;;;;;;;6.97;2.08;;;;;;;;;;5033616;28;20469;-86
2021/08/16 00:26:58;;;;;;;8.05;1.52;;;;;;;;;;5033690;28;20014;-87
2021/08/16 00:29:23;;;;;;;7.30;1.60;;;;;;;;;;5029074;28;20477;-87
2021/08/16 00:31:49;;;;;;;6.72;1.60;;;;;;;;;;5033649;28;20041;-87
2021/08/16 00:34:14;;;;;;;8.93;1.83;;;;;;;;;;5033547;28;20018;-87
2021/08/16 00:36:39;;;;;;;10.40;1.60;;;;;;;;;;5033600;28;20025;-87
2021/08/16 00:39:04;;;;;;;8.27;1.63;;;;;;;;;;5033468;28;20026;-87
2021/08/16 00:41:31;;;;;;;9.75;1.85;;;;;;;;;;5034529;28;20100;-86
2021/08/16 00:43:56;;;;;;;10.35;1.67;;;;;;;;;;5033382;28;20461;-87
2021/08/16 00:46:21;;;;;;;10.90;1.80;;;;;;;;;;5033049;28;20068;-87
2021/08/16 00:48:47;;;;;;;7.53;1.70;;;;;;;;;;5033290;28;20405;-87
2021/08/16 00:51:12;;;;;;;12.52;1.88;;;;;;;;;;5033262;28;20029;-87
2021/08/16 00:53:38;;;;;;;10.20;1.60;;;;;;;;;;5033074;28;20028;-87
2021/08/16 00:56:04;;;;;;;7.65;1.83;;;;;;;;;;5030649;28;20465;-87
2021/08/16 00:58:29;;;;;;;7.53;1.77;;;;;;;;;;5030601;28;20017;-87
2021/08/16 01:00:58;;;;;;;11.80;1.77;;;;;;;;;;5034232;28;20025;-87
2021/08/16 01:03:27;;;;;;;6.53;1.98;;;;;;;;;;5032755;28;20021;-87
2021/08/16 01:05:56;;;;;;;8.10;2.20;;;;;;;;;;5032946;28;20040;-87
2021/08/16 01:08:21;;;;;;;14.75;1.85;;;;;;;;;;5020186;28;20022;-87
2021/08/16 01:10:47;;;;;;;9.75;1.35;;;;;;;;;;5034270;28;20100;-87
2021/08/16 01:13:12;;;;;;;14.88;2.08;;;;;;;;;;5058748;28;20048;-87
2021/08/16 01:15:37;;;;;;;12.68;1.60;;;;;;;;;;5032722;28;20381;-87
2021/08/16 01:18:03;;;;;;;12.52;1.80;;;;;;;;;;5032881;28;20032;-87
2021/08/16 01:20:28;;;;;;;17.50;1.85;;;;;;;;;;5032792;28;20182;-87
2021/08/16 01:22:56;;;;;;;6.78;1.50;;;;;;;;;;5031686;28;20025;-87
2021/08/16 01:25:21;;;;;;;7.32;1.50;;;;;;;;;;5024775;28;20030;-87
2021/08/16 01:27:46;;;;;;;11.40;2.03;;;;;;;;;;5033701;28;20018;-86
2021/08/16 01:30:13;;;;;;;5.28;1.63;;;;;;;;;;5032566;28;20021;-87
2021/08/16 01:32:40;;;;;;;9.63;1.70;;;;;;;;;;5026399;28;20022;-87
2021/08/16 01:35:05;;;;;;;6.57;1.90;;;;;;;;;;5032425;28;20017;-87
2021/08/16 01:37:30;;;;;;;5.72;1.45;;;;;;;;;;5032443;28;20021;-87
2021/08/16 01:39:56;;;;;;;7.70;1.63;;;;;;;;;;5032286;28;20591;-86
2021/08/16 01:42:21;;;;;;;8.27;1.92;;;;;;;;;;5019404;28;20029;-86
2021/08/16 01:44:46;;;;;;;15.20;1.40;;;;;;;;;;5029110;28;20029;-87
2021/08/16 01:47:11;;;;;;;8.65;1.50;;;;;;;;;;5032246;28;20116;-87
2021/08/16 01:49:37;;;;;;;9.82;1.98;;;;;;;;;;5033496;28;20028;-87
2021/08/16 01:52:02;;;;;;;5.85;1.88;;;;;;;;;;5032283;28;20404;-87
2021/08/16 01:54:27;;;;;;;8.20;1.88;;;;;;;;;;5021232;28;20030;-87
2021/08/16 01:56:52;;;;;;;12.18;1.73;;;;;;;;;;5030534;28;20074;-87
2021/08/16 01:59:18;;;;;;;10.48;1.67;;;;;;;;;;5033398;28;20108;-87
2021/08/16 02:01:43;;;;;;;10.82;1.80;;;;;;;;;;5032075;28;20024;-87
2021/08/16 02:04:08;;;;;;;12.23;1.70;;;;;;;;;;5032066;28;20021;-86
2021/08/16 02:06:34;;;;;;;10.73;1.50;;;;;;;;;;5031970;28;20024;-86
2021/08/16 02:08:59;;;;;;;8.13;1.38;;;;;;;;;;5025763;28;20434;-87
2021/08/16 02:11:24;;;;;;;11.85;2.08;;;;;;;;;;5024143;28;20116;-87
2021/08/16 02:13:49;;;;;;;11.95;1.98;;;;;;;;;;5033201;28;20057;-87
2021/08/16 02:16:14;;;;;;;9.88;1.70;;;;;;;;;;5027368;28;20022;-87
2021/08/16 02:18:40;;;;;;;8.63;1.92;;;;;;;;;;5023812;28;20029;-86
2021/08/16 02:21:05;;;;;;;9.40;1.30;;;;;;;;;;5031794;28;20080;-87
2021/08/16 02:23:30;;;;;;;11.25;1.55;;;;;;;;;;5030392;28;20025;-86
2021/08/16 02:25:55;;;;;;;9.40;1.30;;;;;;;;;;5028637;28;20116;-87
2021/08/16 02:28:21;;;;;;;10.68;1.50;;;;;;;;;;5031876;28;20109;-87
2021/08/16 02:30:47;;;;;;;9.63;1.77;;;;;;;;;;5031126;28;20029;-87
2021/08/16 02:33:13;;;;;;;8.05;1.30;;;;;;;;;;5031271;28;20021;-87
2021/08/16 02:35:39;;;;;;;9.52;1.48;;;;;;;;;;5034815;28;20025;-87
2021/08/16 02:38:04;;;;;;;11.70;1.85;;;;;;;;;;5035503;28;20028;-87
2021/08/16 02:40:30;;;;;;;10.48;1.92;;;;;;;;;;5031487;28;20025;-87
2021/08/16 02:42:55;;;;;;;9.30;1.75;;;;;;;;;;5014171;28;20053;-87
2021/08/16 02:45:20;;;;;;;7.18;1.40;;;;;;;;;;5015313;28;20022;-87
2021/08/16 02:47:45;;;;;;;11.35;1.42;;;;;;;;;;5017100;28;20470;-87
2021/08/16 02:50:10;;;;;;;10.38;1.60;;;;;;;;;;5015666;28;20099;-86
2021/08/16 02:52:36;;;;;;;11.93;1.75;;;;;;;;;;5015564;28;20113;-87
2021/08/16 02:55:02;;;;;;;9.07;1.77;;;;;;;;;;5015645;28;20114;-87
2021/08/16 02:57:27;;;;;;;9.93;1.85;;;;;;;;;;5015680;28;20022;-87
2021/08/16 02:59:52;;;;;;;7.30;1.65;;;;;;;;;;5015273;28;20044;-87
2021/08/16 03:02:18;;;;;;;10.00;1.70;;;;;;;;;;5015469;28;20596;-87
2021/08/16 03:04:43;;;;;;;10.73;1.63;;;;;;;;;;5015192;28;20034;-87
2021/08/16 03:07:09;;;;;;;9.98;2.10;;;;;;;;;;5015371;28;20026;-87
2021/08/16 03:09:34;;;;;;;13.20;1.90;;;;;;;;;;5015355;28;20025;-87
2021/08/16 03:11:59;;;;;;;8.65;2.42;;;;;;;;;;5015177;28;20063;-87
2021/08/16 03:14:25;;;;;;;9.13;1.55;;;;;;;;;;5015297;28;20120;-87
2021/08/16 03:16:50;;;;;;;9.25;1.83;;;;;;;;;;5015037;28;20018;-87
2021/08/16 03:19:15;;;;;;;8.38;1.50;;;;;;;;;;5015204;28;20037;-87
2021/08/16 03:21:40;;;;;;;10.40;1.27;;;;;;;;;;5014948;28;20022;-87
2021/08/16 03:24:07;;;;;;;8.68;1.73;;;;;;;;;;5015050;28;20026;-87
2021/08/16 03:26:32;;;;;;;9.00;1.50;;;;;;;;;;5015023;28;20018;-87
2021/08/16 03:28:57;;;;;;;6.68;1.30;;;;;;;;;;5015124;28;20531;-87
2021/08/16 03:31:22;;;;;;;11.23;1.50;;;;;;;;;;5015038;28;20022;-87
2021/08/16 03:33:47;;;;;;;7.22;1.50;;;;;;;;;;5014882;28;20045;-87
2021/08/16 03:36:13;;;;;;;7.38;1.17;;;;;;;;;;5014957;28;20076;-87
2021/08/16 03:38:39;;;;;;;10.52;1.67;;;;;;;;;;5015905;28;20018;-86
2021/08/16 03:41:04;;;;;;;9.25;1.42;;;;;;;;;;5014823;28;20021;-87
2021/08/16 03:43:29;;;;;;;8.30;1.45;;;;;;;;;;5014731;28;20026;-87
2021/08/16 03:45:54;;;;;;;10.40;2.03;;;;;;;;;;5013611;28;20017;-87
2021/08/16 03:48:20;;;;;;;12.68;2.50;;;;;;;;;;5014687;28;20026;-87
2021/08/16 03:50:45;;;;;;;11.35;1.55;;;;;;;;;;5014028;28;20478;-87
2021/08/16 03:53:10;;;;;;;3.75;1.45;;;;;;;;;;5014528;28;20390;-87
2021/08/16 03:55:35;;;;;;;5.68;1.33;;;;;;;;;;5014543;28;20054;-87
2021/08/16 03:58:01;;;;;;;7.22;1.30;;;;;;;;;;5047449;28;20433;-87
2021/08/16 04:00:26;;;;;;;6.05;1.40;;;;;;;;;;5014437;28;20030;-87
2021/08/16 04:02:51;;;;;;;13.63;1.63;;;;;;;;;;5014115;28;20030;-87
2021/08/16 04:05:16;;;;;;;7.38;1.42;;;;;;;;;;5014237;28;20497;-87
2021/08/16 04:07:43;;;;;;;8.13;1.50;;;;;;;;;;5014098;28;20013;-87
2021/08/16 04:10:08;;;;;;;6.65;1.00;;;;;;;;;;5014175;28;20014;-87
2021/08/16 04:12:33;;;;;;;11.20;1.60;;;;;;;;;;5014004;28;20021;-87
2021/08/16 04:14:58;;;;;;;9.20;1.63;;;;;;;;;;5013943;28;20064;-86
2021/08/16 04:17:24;;;;;;;5.45;1.38;;;;;;;;;;5010332;28;20034;-87
2021/08/16 04:19:49;;;;;;;11.05;1.63;;;;;;;;;;5013776;28;20448;-87
2021/08/16 04:22:14;;;;;;;6.55;1.20;;;;;;;;;;5015193;28;20536;-87
2021/08/16 04:24:39;;;;;;;6.70;1.42;;;;;;;;;;5013641;28;20054;-86
2021/08/16 04:27:05;;;;;;;13.60;1.58;;;;;;;;;;5013427;28;20026;-87
2021/08/16 04:29:30;;;;;;;5.72;1.33;;;;;;;;;;5015133;28;20109;-87
2021/08/16 04:31:56;;;;;;;10.35;1.63;;;;;;;;;;5014846;28;20017;-87
2021/08/16 04:34:22;;;;;;;6.18;1.42;;;;;;;;;;5013758;28;20025;-87
2021/08/16 04:36:47;;;;;;;8.80;1.20;;;;;;;;;;5013582;28;20026;-87
2021/08/16 04:39:12;;;;;;;6.28;1.30;;;;;;;;;;5013346;28;20033;-86
2021/08/16 04:41:37;;;;;;;9.07;1.27;;;;;;;;;;5013592;28;20457;-87
2021/08/16 04:44:03;;;;;;;11.73;1.98;;;;;;;;;;5014626;28;20013;-87
2021/08/16 04:46:28;;;;;;;9.98;1.52;;;;;;;;;;5013440;28;20033;-87
2021/08/16 04:48:53;;;;;;;14.35;1.52;;;;;;;;;;5013358;28;20021;-87
2021/08/16 04:51:18;;;;;;;8.98;1.48;;;;;;;;;;5013401;28;20032;-87
2021/08/16 04:53:44;;;;;;;6.22;1.67;;;;;;;;;;5015066;28;20469;-87
2021/08/16 04:56:09;;;;;;;10.13;1.55;;;;;;;;;;5013180;28;20026;-87
2021/08/16 04:58:34;;;;;;;12.73;1.70;;;;;;;;;;5013318;28;20026;-87
2021/08/16 05:01:00;;;;;;;4.28;1.10;;;;;;;;;;5013101;28;20022;-87
2021/08/16 05:03:26;;;;;;;6.90;1.65;;;;;;;;;;5013226;28;20022;-87
2021/08/16 05:05:55;;;;;;;12.50;1.65;;;;;;;;;;5014621;28;20049;-87
2021/08/16 05:08:20;;;;;;;7.45;1.42;;;;;;;;;;5013136;28;20064;-87
2021/08/16 05:10:49;;;;;;;7.07;1.63;;;;;;;;;;5013087;28;20481;-87
2021/08/16 05:13:14;;;;;;;9.82;1.30;;;;;;;;;;5013270;28;20057;-87
2021/08/16 05:15:43;;;;;;;9.85;1.67;;;;;;;;;;5013082;28;20420;-87
2021/08/16 05:18:09;;;;;;;8.93;1.75;;;;;;;;;;5013153;28;20592;-87
2021/08/16 05:20:37;;;;;;;8.95;1.50;;;;;;;;;;5013140;28;20021;-87
2021/08/16 05:23:02;;;;;;;7.90;1.50;;;;;;;;;;5014082;28;20059;-87
2021/08/16 05:25:27;;;;;;;9.05;1.75;;;;;;;;;;5013018;28;20096;-87
2021/08/16 05:27:53;;;;;;;5.43;1.40;;;;;;;;;;5012819;28;20478;-87
2021/08/16 05:30:18;;;;;;;8.65;1.63;;;;;;;;;;5013918;28;20022;-87
2021/08/16 05:32:43;;;;;;;9.00;1.92;;;;;;;;;;5012880;28;20038;-87
2021/08/16 05:35:09;;;;;;;8.77;1.73;;;;;;;;;;5012624;28;20028;-86
2021/08/16 05:37:34;;;;;;;8.73;2.00;;;;;;;;;;5012791;28;20118;-87
2021/08/16 05:39:59;;;;;;;7.78;1.80;;;;;;;;;;5012633;28;20553;-87
2021/08/16 05:42:24;;;;;;;8.02;1.88;;;;;;;;;;5013890;28;20053;-87
2021/08/16 05:44:50;;;;;;;11.68;2.35;;;;;;;;;;5012610;28;20493;-88
2021/08/16 05:47:15;;;;;;;11.35;2.00;;;;;;;;;;5012415;28;20477;-87
2021/08/16 05:49:40;;;;;;;8.35;1.98;;;;;;;;;;5012448;28;20014;-87
2021/08/16 05:52:06;;;;;;;9.25;2.05;;;;;;;;;;5012148;28;20034;-87
2021/08/16 05:54:31;;;;;;;11.30;2.05;;;;;;;;;;5013690;28;20076;-87
2021/08/16 05:56:56;;;;;;;10.40;2.20;;;;;;;;;;5016980;28;20022;-87
2021/08/16 05:59:21;;;;;;;16.15;2.45;;;;;;;;;;5012609;28;20370;-86
2021/08/16 06:01:47;;;;;;;12.23;2.33;;;;;;;;;;5013683;28;20094;-87
2021/08/16 06:04:12;;;;;;;11.02;2.25;;;;;;;;;;5011891;28;20026;-87
2021/08/16 06:06:37;;;;;;;9.60;2.30;;;;;;;;;;5011321;28;20022;-88
2021/08/16 06:09:03;;;;;;;8.82;3.13;;;;;;;;;;5012900;28;20024;-87
2021/08/16 06:11:28;;;;;;;8.73;2.40;;;;;;;;;;5004928;28;20376;-87
2021/08/16 06:13:53;;;;;;;11.05;2.22;;;;;;;;;;5014595;28;20030;-87
2021/08/16 06:16:19;;;;;;;13.48;2.53;;;;;;;;;;5018572;28;20072;-87
2021/08/16 06:18:44;;;;;;;9.85;2.78;;;;;;;;;;5019649;28;20025;-87
2021/08/16 06:21:09;;;;;;;15.77;2.83;;;;;;;;;;5018644;28;20041;-87
2021/08/16 06:23:35;;;;;;;7.95;2.38;;;;;;;;;;5018518;28;20025;-87
2021/08/16 06:26:01;;;;;;;9.75;2.45;;;;;;;;;;5018122;28;20428;-87
2021/08/16 06:28:26;;;;;;;6.28;2.42;;;;;;;;;;5019933;28;20509;-87
2021/08/16 06:30:51;;;;;;;9.55;2.25;;;;;;;;;;5017821;28;20014;-87
2021/08/16 06:33:16;;;;;;;7.30;2.33;;;;;;;;;;5018077;28;20460;-87
2021/08/16 06:35:42;;;;;;;8.70;2.28;;;;;;;;;;5017760;28;20026;-87
2021/08/16 06:38:20;;;;;;;7.82;2.70;;;;;;;;;;5018584;28;20056;-87
2021/08/16 06:40:45;;;;;;;10.68;2.25;;;;;;;;;;5018228;28;20022;-87
2021/08/16 06:43:10;;;;;;;5.63;2.10;;;;;;;;;;5051529;28;20547;-87
2021/08/16 06:45:35;;;;;;;6.97;2.20;;;;;;;;;;5017886;28;20018;-86
2021/08/16 06:48:01;;;;;;;9.73;2.17;;;;;;;;;;5017814;28;20052;-88
2021/08/16 06:50:26;;;;;;;7.80;1.33;;;;;;;;;;5018141;28;20524;-88
2021/08/16 06:52:51;;;;;;;9.63;2.10;;;;;;;;;;5018233;28;20092;-87
2021/08/16 06:55:16;;;;;;;7.80;2.10;;;;;;;;;;5015978;28;20029;-87
2021/08/16 06:57:43;;;;;;;12.10;2.20;;;;;;;;;;5047799;28;20046;-88
2021/08/16 07:00:08;;;;;;;11.73;2.50;;;;;;;;;;5010418;28;20080;-87
2021/08/16 07:02:33;;;;;;;6.50;2.70;;;;;;;;;;5014859;28;20476;-87
2021/08/16 07:04:58;;;;;;;8.85;2.47;;;;;;;;;;5017625;28;20048;-87
2021/08/16 07:07:24;;;;;;;9.93;2.95;;;;;;;;;;5018381;28;20105;-88
2021/08/16 07:09:49;;;;;;;9.68;2.60;;;;;;;;;;5017172;28;20026;-87
2021/08/16 07:12:14;;;;;;;10.75;2.78;;;;;;;;;;5019414;28;20044;-87
2021/08/16 07:14:39;;;;;;;7.93;2.78;;;;;;;;;;5017272;28;20034;-87
2021/08/16 07:17:05;;;;;;;9.73;3.08;;;;;;;;;;5017760;28;20044;-87
2021/08/16 07:19:30;;;;;;;10.02;2.50;;;;;;;;;;5018407;28;20030;-88
2021/08/16 07:21:55;;;;;;;9.48;2.88;;;;;;;;;;5015684;28;20018;-88
2021/08/16 07:24:21;;;;;;;12.10;2.90;;;;;;;;;;5014755;28;20079;-89
2021/08/16 07:26:46;;;;;;;9.05;2.70;;;;;;;;;;5014336;28;20029;-87
2021/08/16 07:29:12;;;;;;;5.35;2.15;;;;;;;;;;5011291;28;20029;-87
2021/08/16 07:31:37;;;;;;;9.63;3.05;;;;;;;;;;5010226;28;20103;-87
2021/08/16 07:34:02;;;;;;;10.32;3.00;;;;;;;;;;5013724;28;20108;-87
2021/08/16 07:36:27;;;;;;;7.75;3.10;;;;;;;;;;5014710;28;20053;-88
2021/08/16 07:38:52;;;;;;;11.68;3.20;;;;;;;;;;5014060;28;20385;-88
2021/08/16 07:41:18;;;;;;;18.00;3.58;;;;;;;;;;5012024;28;20029;-87
2021/08/16 07:43:43;;;;;;;10.98;3.60;;;;;;;;;;5046129;28;20474;-88
2021/08/16 07:46:08;;;;;;;9.63;2.95;;;;;;;;;;5013350;28;20017;-87
2021/08/16 07:48:33;;;;;;;12.32;3.50;;;;;;;;;;5013603;28;20018;-87
2021/08/16 07:50:58;;;;;;;7.47;3.45;;;;;;;;;;5014394;28;20016;-88
2021/08/16 07:53:24;;;;;;;9.20;3.25;;;;;;;;;;5014319;28;20064;-88
2021/08/16 07:55:49;;;;;;;12.32;3.42;;;;;;;;;;5012908;28;20026;-88
2021/08/16 07:58:14;;;;;;;7.10;2.78;;;;;;;;;;5016222;28;20470;-87
2021/08/16 08:00:39;;;;;;;11.02;3.25;;;;;;;;;;5012364;28;20054;-87
2021/08/16 08:03:04;;;;;;;8.52;3.00;;;;;;;;;;5015340;28;20022;-87
2021/08/16 08:05:30;;;;;;;7.95;2.80;;;;;;;;;;5013582;28;20061;-87
2021/08/16 08:07:55;;;;;;;6.38;2.20;;;;;;;;;;5015144;28;20025;-88
2021/08/16 08:10:20;;;;;;;5.15;2.58;;;;;;;;;;5014187;28;20022;-88
2021/08/16 08:12:46;;;;;;;11.10;3.03;;;;;;;;;;5015275;28;20025;-87
2021/08/16 08:15:12;;;;;;;11.98;3.38;;;;;;;;;;5008055;28;20121;-87
2021/08/16 08:17:37;;;;;;;10.32;3.65;;;;;;;;;;5013815;28;20787;-86
2021/08/16 08:20:04;;;;;;;7.15;3.45;;;;;;;;;;5015042;28;20017;-86
2021/08/16 08:22:29;;;;;;;8.05;3.40;;;;;;;;;;5013799;28;20470;-86
2021/08/16 08:24:54;;;;;;;7.25;3.53;;;;;;;;;;5013129;28;20041;-86
2021/08/16 08:27:20;;;;;;;7.53;3.67;;;;;;;;;;5013709;28;20028;-87
2021/08/16 08:29:45;;;;;;;12.77;4.80;;;;;;;;;;5014728;28;20036;-85
2021/08/16 08:32:11;;;;;;;6.20;4.00;;;;;;;;;;5011760;28;20108;-86
2021/08/16 08:34:36;;;;;;;8.60;3.78;;;;;;;;;;5013190;28;20045;-86
2021/08/16 08:37:02;;;;;;;7.30;3.85;;;;;;;;;;5012921;28;20026;-86
2021/08/16 08:39:27;;;;;;;9.07;4.25;;;;;;;;;;5011790;28;20033;-86
2021/08/16 08:41:54;;;;;;;8.90;3.28;;;;;;;;;;5014456;28;20117;-86
2021/08/16 08:44:21;;;;;;;9.32;3.72;;;;;;;;;;5015107;28;20033;-86
2021/08/16 08:46:47;;;;;;;13.25;3.20;;;;;;;;;;5010609;28;20363;-85
2021/08/16 08:49:14;;;;;;;4.93;2.60;;;;;;;;;;5012894;28;20026;-86
2021/08/16 08:51:39;;;;;;;8.60;2.40;;;;;;;;;;5013508;28;20096;-86
2021/08/16 08:54:04;;;;;;;7.22;2.33;;;;;;;;;;5014478;28;20050;-87
2021/08/16 08:56:31;;;;;;;5.97;2.50;;;;;;;;;;5013180;28;20033;-87
2021/08/16 08:58:56;;;;;;;4.15;1.95;;;;;;;;;;5013340;28;20049;-87
2021/08/16 09:01:21;;;;;;;4.97;2.22;;;;;;;;;;5013178;28;20026;-87
2021/08/16 09:03:50;;;;;;;4.22;1.60;;;;;;;;;;5012843;28;20038;-86
2021/08/16 09:06:32;;;;;;;3.92;1.80;;;;;;;;;;5012430;28;21040;-87
2021/08/16 09:08:57;;;;;;;3.30;1.73;;;;;;;;;;5038453;28;20026;-87
2021/08/16 09:11:25;;;;;;;5.28;2.13;;;;;;;;;;5012890;28;20603;-87
2021/08/16 09:13:57;;;;;;;7.85;2.33;;;;;;;;;;5013154;28;20096;-87
2021/08/16 09:16:23;;;;;;;3.47;1.95;;;;;;;;;;5014150;28;20030;-87
2021/08/16 09:18:48;;;;;;;3.63;2.15;;;;;;;;;;5013902;28;20099;-86
2021/08/16 09:21:22;;;;;;;4.95;2.03;;;;;;;;;;5013021;28;20474;-87
2021/08/16 09:23:49;;;;;;;5.03;2.00;;;;;;;;;;5012640;28;20033;-86
2021/08/16 09:26:23;;;;;;;9.45;2.30;;;;;;;;;;5012824;28;20076;-87
2021/08/16 09:28:51;;;;;;;8.05;2.50;;;;;;;;;;5012061;28;20026;-86
2021/08/16 09:31:18;;;;;;;3.55;2.47;;;;;;;;;;5013788;28;20354;-86
2021/08/16 09:33:56;;;;;;;6.85;2.55;;;;;;;;;;5013599;28;20030;-87
2021/08/16 09:36:33;;;;;;;6.75;2.72;;;;;;;;;;5012677;28;20034;-86
2021/08/16 09:38:58;;;;;;;6.53;2.10;;;;;;;;;;5011632;28;20044;-87
2021/08/16 09:41:24;;;;;;;6.10;2.67;;;;;;;;;;5011034;28;20030;-86
2021/08/16 09:43:54;;;;;;;7.70;2.60;;;;;;;;;;5006015;28;20362;-87
2021/08/16 09:46:19;;;;;;;5.60;3.20;;;;;;;;;;5012492;28;20084;-87
2021/08/16 09:48:57;;;;;;;7.57;2.97;;;;;;;;;;5012510;28;20026;-87
2021/08/16 09:51:23;;;;;;;7.03;3.83;;;;;;;;;;4998051;28;20026;-87
2021/08/16 09:53:49;;;;;;;10.88;4.88;;;;;;;;;;5007322;28;20022;-87
2021/08/16 09:56:16;;;;;;;7.22;4.10;;;;;;;;;;5012340;28;20405;-87
2021/08/16 09:58:41;;;;;;;10.05;4.45;;;;;;;;;;5012148;28;20087;-86
2021/08/16 10:01:06;;;;;;;6.38;3.88;;;;;;;;;;5012198;28;20038;-87
2021/08/16 10:03:32;;;;;;;6.32;3.65;;;;;;;;;;5013369;28;20425;-86
2021/08/16 10:05:58;;;;;;;10.98;3.95;;;;;;;;;;5012065;28;20018;-86
2021/08/16 10:08:24;;;;;;;9.35;3.83;;;;;;;;;;5012434;28;20029;-87
2021/08/16 10:10:51;;;;;;;11.27;3.45;;;;;;;;;;5013001;28;20022;-87
2021/08/16 10:13:20;;;;;;;9.27;2.97;;;;;;;;;;5011841;28;20041;-87
2021/08/16 10:15:46;;;;;;;10.02;3.38;;;;;;;;;;5011264;28;20529;-87
2021/08/16 10:18:19;;;;;;;7.38;3.05;;;;;;;;;;5012074;28;20064;-87
2021/08/16 10:20:46;;;;;;;8.27;2.60;;;;;;;;;;5012251;28;20030;-87
2021/08/16 10:23:18;;;;;;;6.30;2.40;;;;;;;;;;5011635;28;20053;-87
2021/08/16 10:25:45;;;;;;;10.48;2.72;;;;;;;;;;5011858;28;20466;-87
2021/08/16 10:28:21;;;;;;;6.93;2.60;;;;;;;;;;5012995;28;20014;-88
2021/08/16 10:30:46;;;;;;;6.28;2.80;;;;;;;;;;5042226;28;20109;-87
2021/08/16 10:33:11;;;;;;;8.43;3.38;;;;;;;;;;5011901;28;20057;-88
2021/08/16 10:35:38;;;;;;;6.38;2.72;;;;;;;;;;5012100;28;20552;-87
2021/08/16 10:38:08;;;;;;;8.60;2.85;;;;;;;;;;5011767;28;20029;-87
2021/08/16 10:40:38;;;;;;;8.73;3.20;;;;;;;;;;5011976;28;20096;-87
2021/08/16 10:43:06;;;;;;;10.80;3.28;;;;;;;;;;5012122;28;20087;-87
2021/08/16 10:45:33;;;;;;;14.13;3.28;;;;;;;;;;5011252;28;20026;-87
2021/08/16 10:48:02;;;;;;;11.75;3.83;;;;;;;;;;5012009;28;20022;-87
2021/08/16 10:50:28;;;;;;;14.55;3.67;;;;;;;;;;5011440;28;20120;-87
2021/08/16 10:53:06;;;;;;;9.13;3.92;;;;;;;;;;5008663;28;20105;-87
2021/08/16 10:55:33;;;;;;;13.10;5.03;;;;;;;;;;5010896;28;20118;-87
2021/08/16 10:57:58;;;;;;;11.95;5.15;;;;;;;;;;5015351;28;20034;-87
2021/08/16 11:00:24;;;;;;;19.23;7.07;;;;;;;;;;5015552;28;20120;-87
2021/08/16 11:02:56;;;;;;;15.73;6.15;;;;;;;;;;5014876;28;20105;-87
2021/08/16 11:05:28;;;;;;;18.98;6.82;;;;;;;;;;5009306;28;20025;-87
2021/08/16 11:07:53;;;;;;;;;;;;;;;;;;5031926;28;20018;-87
2021/08/16 11:10:18;;;;;;;14.23;3.92;;;;;;;;;;5016673;28;19933;-87
2021/08/16 11:12:44;;;;;;;19.92;8.00;;;;;;;;;;5015094;28;20041;-87
2021/08/16 11:15:17;;;;;;;18.70;8.20;;;;;;;;;;5015264;28;20037;-87
2021/08/16 11:17:43;;;;;;;17.77;8.15;;;;;;;;;;5014786;28;20029;-88
2021/08/16 11:20:15;;;;;;;19.13;9.88;;;;;;;;;;5015166;28;20018;-87
2021/08/16 11:22:45;;;;;;;22.42;8.80;;;;;;;;;;5046192;28;20101;-87
2021/08/16 11:25:11;;;;;;;21.80;7.93;;;;;;;;;;5014330;28;20022;-87
2021/08/16 11:27:41;;;;;;;9.23;3.25;;;;;;;;;;5014718;28;20492;-87
2021/08/16 11:30:07;;;;;;;23.45;10.63;;;;;;;;;;5014892;28;20018;-87
2021/08/16 11:32:33;;;;;;;24.65;9.80;;;;;;;;;;5015998;28;20030;-86
2021/08/16 11:34:59;;;;;;;15.02;5.78;;;;;;;;;;5014165;28;20417;-86
2021/08/16 11:37:25;;;;;;;22.83;9.43;;;;;;;;;;5013758;28;20029;-86
2021/08/16 11:39:51;;;;;;;20.88;9.75;;;;;;;;;;5015638;28;20109;-87
2021/08/16 11:42:17;;;;;;;23.98;11.05;;;;;;;;;;5013007;28;20049;-86
2021/08/16 11:44:42;;;;;;;24.98;11.05;;;;;;;;;;5014679;28;20021;-86
2021/08/16 11:47:07;;;;;;;21.70;9.10;;;;;;;;;;5015678;28;20075;-86
2021/08/16 11:49:34;;;;;;;23.05;9.60;;;;;;;;;;5014118;28;20064;-86
2021/08/16 11:52:01;;;;;;;23.48;11.20;;;;;;;;;;5013943;28;20022;-86
2021/08/16 11:54:27;;;;;;;19.90;9.85;;;;;;;;;;5009334;28;20474;-86
2021/08/16 11:56:54;;;;;;;16.85;6.03;;;;;;;;;;5014245;28;20030;-87
2021/08/16 11:59:19;;;;;;;22.88;10.40;;;;;;;;;;5014310;28;20030;-86
2021/08/16 12:01:45;;;;;;;22.20;10.50;;;;;;;;;;5014442;28;20080;-87
2021/08/16 12:04:11;;;;;;;23.63;8.35;;;;;;;;;;5013985;28;20030;-86
2021/08/16 12:06:36;;;;;;;22.13;10.25;;;;;;;;;;5013234;28;20537;-86
2021/08/16 12:09:06;;;;;;;25.30;9.85;;;;;;;;;;5015229;28;20049;-86
2021/08/16 12:11:34;;;;;;;22.77;10.80;;;;;;;;;;5014037;28;20014;-87
2021/08/16 12:14:01;;;;;;;21.40;9.55;;;;;;;;;;5014111;28;20046;-86
2021/08/16 12:16:30;;;;;;;22.48;8.98;;;;;;;;;;5012875;28;20029;-87
2021/08/16 12:18:56;;;;;;;27.48;10.10;;;;;;;;;;5009745;28;20026;-86
2021/08/16 12:21:21;;;;;;;22.58;10.30;;;;;;;;;;5013161;28;20100;-86
2021/08/16 12:24:00;;;;;;;22.90;10.60;;;;;;;;;;5013340;28;20093;-86
2021/08/16 12:26:28;;;;;;;19.70;9.48;;;;;;;;;;5038735;28;20030;-86
2021/08/16 12:28:53;;;;;;;25.33;10.40;;;;;;;;;;5040562;28;20030;-86
2021/08/16 12:31:21;;;;;;;22.70;9.57;;;;;;;;;;5005541;28;20034;-86
2021/08/16 12:34:02;;;;;;;16.52;5.70;;;;;;;;;;5021721;28;20030;-86
2021/08/16 12:36:32;;;;;;;25.45;10.35;;;;;;;;;;5014419;28;20132;-86
2021/08/16 12:38:59;;;;;;;21.70;10.18;;;;;;;;;;5013054;28;20080;-86
2021/08/16 12:41:25;;;;;;;24.35;10.50;;;;;;;;;;5014247;28;20473;-86
2021/08/16 12:43:51;;;;;;;23.35;10.18;;;;;;;;;;5012975;28;20500;-86
2021/08/16 12:46:26;;;;;;;23.23;10.38;;;;;;;;;;5012503;28;20018;-86
2021/08/16 12:48:51;;;;;;;20.88;9.75;;;;;;;;;;5014392;28;20018;-86
2021/08/16 12:51:16;;;;;;;23.42;9.20;;;;;;;;;;5046512;28;20093;-86
2021/08/16 12:53:41;;;;;;;21.25;9.93;;;;;;;;;;5002272;28;20037;-86
2021/08/16 12:56:07;;;;;;;26.48;9.82;;;;;;;;;;5009990;28;20034;-86
2021/08/16 12:58:32;;;;;;;21.70;10.05;;;;;;;;;;5046463;28;20030;-86
2021/08/16 13:00:59;;;;;;;21.20;9.75;;;;;;;;;;5014322;28;20030;-87
2021/08/16 13:03:24;;;;;;;24.25;10.25;;;;;;;;;;5013363;28;20076;-86
2021/08/16 13:05:49;;;;;;;22.85;10.40;;;;;;;;;;5012701;28;20030;-86
2021/08/16 13:08:14;;;;;;;21.65;9.68;;;;;;;;;;5012230;28;20060;-86
2021/08/16 13:10:40;;;;;;;21.73;9.50;;;;;;;;;;5012501;28;20021;-86
2021/08/16 13:13:05;;;;;;;23.30;10.68;;;;;;;;;;5013765;28;20422;-86
2021/08/16 13:15:30;;;;;;;24.23;9.77;;;;;;;;;;5012306;28;20026;-86
2021/08/16 13:17:55;;;;;;;25.90;10.43;;;;;;;;;;5014080;28;20022;-86
2021/08/16 13:20:21;;;;;;;18.67;9.50;;;;;;;;;;5012152;28;20037;-86
2021/08/16 13:22:46;;;;;;;25.25;9.73;;;;;;;;;;5012953;28;20029;-87
2021/08/16 13:25:11;;;;;;;27.05;9.77;;;;;;;;;;5012222;28;20056;-86
2021/08/16 13:27:38;;;;;;;25.77;10.65;;;;;;;;;;5012449;28;20018;-86
2021/08/16 13:30:04;;;;;;;25.30;10.95;;;;;;;;;;5012136;28;20122;-86
2021/08/16 13:32:29;;;;;;;18.20;8.48;;;;;;;;;;5012796;28;20049;-86
2021/08/16 13:34:54;;;;;;;24.13;9.35;;;;;;;;;;5012776;28;20033;-86
2021/08/16 13:37:19;;;;;;;21.88;10.15;;;;;;;;;;5012537;28;20030;-87
2021/08/16 13:39:44;;;;;;;19.20;7.63;;;;;;;;;;5012812;28;20021;-86
2021/08/16 13:42:10;;;;;;;8.60;4.20;;;;;;;;;;5013768;28;20026;-86
2021/08/16 13:44:35;;;;;;;12.02;5.38;;;;;;;;;;5012556;28;20531;-86
2021/08/16 13:47:00;;;;;;;10.55;5.05;;;;;;;;;;5013284;28;20096;-86
2021/08/16 13:49:25;;;;;;;10.98;5.60;;;;;;;;;;5012083;28;20022;-86
2021/08/16 13:51:51;;;;;;;11.02;4.75;;;;;;;;;;5012497;28;20014;-86
2021/08/16 13:54:16;;;;;;;9.80;4.43;;;;;;;;;;5011921;28;20033;-87
2021/08/16 13:56:41;;;;;;;14.40;5.28;;;;;;;;;;5014168;28;20538;-86
2021/08/16 13:59:07;;;;;;;12.13;4.80;;;;;;;;;;5012848;28;20505;-86
2021/08/16 14:01:33;;;;;;;11.88;4.78;;;;;;;;;;5011939;28;20041;-87
2021/08/16 14:03:59;;;;;;;10.90;5.40;;;;;;;;;;5012260;28;20018;-86
2021/08/16 14:06:24;;;;;;;10.43;4.47;;;;;;;;;;5012185;28;20032;-87
2021/08/16 14:08:49;;;;;;;10.43;4.00;;;;;;;;;;5012311;28;20093;-87
2021/08/16 14:11:15;;;;;;;11.23;4.82;;;;;;;;;;5013001;28;20022;-87
2021/08/16 14:13:40;;;;;;;13.38;5.75;;;;;;;;;;5013293;28;20025;-87
2021/08/16 14:16:06;;;;;;;12.98;4.70;;;;;;;;;;5012283;28;20489;-87
2021/08/16 14:18:31;;;;;;;9.95;3.28;;;;;;;;;;5012084;28;20028;-87
2021/08/16 14:20:56;;;;;;;11.05;4.13;;;;;;;;;;5011954;28;20037;-86
2021/08/16 14:23:21;;;;;;;7.03;3.10;;;;;;;;;;5011406;28;20022;-86
2021/08/16 14:25:49;;;;;;;7.85;3.80;;;;;;;;;;5011908;28;20504;-87
2021/08/16 14:28:14;;;;;;;8.05;3.60;;;;;;;;;;5011618;28;20022;-86